createdAt,value
2022-10-08T00:01:28.963Z,79.92
2022-10-08T00:03:56.600Z,79.92
2022-10-08T00:06:26.839Z,80.15
2022-10-08T00:08:58.876Z,80.26
2022-10-08T00:11:28.446Z,80.33
2022-10-08T00:13:55.788Z,80.20
2022-10-08T00:16:40.087Z,80.81
2022-10-08T00:19:15.513Z,80.46
2022-10-08T00:21:44.184Z,80.68
2022-10-08T00:24:16.302Z,81.00
2022-10-08T00:26:44.464Z,81.02
2022-10-08T00:29:13.785Z,80.47
2022-10-08T00:31:42.000Z,80.60
2022-10-08T00:34:11.352Z,80.77
2022-10-08T00:36:39.719Z,80.23
2022-10-08T00:39:13.673Z,80.47
2022-10-08T00:41:42.032Z,80.25
2022-10-08T00:44:46.155Z,80.38
2022-10-08T00:47:20.113Z,80.41
2022-10-08T00:49:49.856Z,81.00
2022-10-08T00:52:18.224Z,80.72
2022-10-08T00:54:45.664Z,80.61
2022-10-08T00:57:12.285Z,81.15
2022-10-08T00:59:38.949Z,80.72
2022-10-08T01:02:08.718Z,80.54
2022-10-08T01:04:37.715Z,80.74
2022-10-08T01:07:10.133Z,80.56
2022-10-08T01:09:50.901Z,80.81
2022-10-08T01:12:44.936Z,80.22
2022-10-08T01:15:26.523Z,81.10
2022-10-08T01:18:07.946Z,80.81
2022-10-08T01:20:42.422Z,80.74
2022-10-08T01:23:11.611Z,80.86
2022-10-08T01:26:05.890Z,80.78
2022-10-08T01:28:43.686Z,80.85
2022-10-08T01:31:21.398Z,80.95
2022-10-08T01:34:00.230Z,80.55
2022-10-08T01:36:32.318Z,80.64
2022-10-08T01:39:02.895Z,80.63
2022-10-08T01:41:32.388Z,80.99
2022-10-08T01:44:10.992Z,80.42
2022-10-08T01:46:41.024Z,80.60
2022-10-08T01:49:13.036Z,81.16
2022-10-08T01:51:47.100Z,80.36
2022-10-08T01:54:16.261Z,80.53
2022-10-08T01:56:45.920Z,81.06
2022-10-08T01:59:19.445Z,80.68
2022-10-08T02:02:20.771Z,80.90
2022-10-08T02:04:49.097Z,80.93
2022-10-08T02:07:18.459Z,81.30
2022-10-08T02:09:48.053Z,80.37
2022-10-08T02:12:14.451Z,80.47
2022-10-08T02:14:47.298Z,80.30
2022-10-08T02:17:53.640Z,80.25
2022-10-08T02:20:32.478Z,80.55
2022-10-08T02:23:29.760Z,80.70
2022-10-08T02:26:13.393Z,80.40
2022-10-08T02:28:47.155Z,80.51
2022-10-08T02:31:36.653Z,80.38
2022-10-08T02:34:08.741Z,80.15
2022-10-08T02:36:40.580Z,80.50
2022-10-08T02:39:08.331Z,80.24
2022-10-08T02:41:40.673Z,80.09
2022-10-08T02:44:14.383Z,80.36
2022-10-08T02:46:44.067Z,80.03
2022-10-08T02:49:18.007Z,80.20
2022-10-08T02:51:49.901Z,80.17
2022-10-08T02:54:19.995Z,80.20
2022-10-08T02:56:52.156Z,80.28
2022-10-08T02:59:20.946Z,79.63
2022-10-08T03:01:56.139Z,80.26
2022-10-08T03:04:29.042Z,80.04
2022-10-08T03:06:57.302Z,79.67
2022-10-08T03:09:25.961Z,79.83
2022-10-08T03:11:52.812Z,79.65
2022-10-08T03:14:22.285Z,79.74
2022-10-08T03:16:48.693Z,79.88
2022-10-08T03:19:17.381Z,79.73
2022-10-08T03:21:45.749Z,79.76
2022-10-08T03:24:14.378Z,79.93
2022-10-08T03:26:41.488Z,79.86
2022-10-08T03:29:09.064Z,79.28
2022-10-08T03:31:35.806Z,79.06
2022-10-08T03:34:02.108Z,79.82
2022-10-08T03:36:29.201Z,79.71
2022-10-08T03:38:55.521Z,79.90
2022-10-08T03:41:21.841Z,79.79
2022-10-08T03:43:48.165Z,79.39
2022-10-08T03:46:15.085Z,79.71
2022-10-08T03:48:42.319Z,79.30
2022-10-08T03:51:12.161Z,79.08
2022-10-08T03:53:40.147Z,79.30
2022-10-08T03:56:09.631Z,79.19
2022-10-08T03:58:36.058Z,79.54
2022-10-08T04:01:09.020Z,78.55
2022-10-08T04:03:35.349Z,78.62
2022-10-08T04:06:02.331Z,78.50
2022-10-08T04:08:29.088Z,78.46
2022-10-08T04:10:56.208Z,78.30
2022-10-08T04:13:22.795Z,77.96
2022-10-08T04:15:50.768Z,77.43
2022-10-08T04:18:17.575Z,77.96
2022-10-08T04:20:44.180Z,79.14
2022-10-08T04:23:11.162Z,80.10
2022-10-08T04:25:37.925Z,80.78
2022-10-08T04:28:05.800Z,81.11
2022-10-08T04:30:32.698Z,81.15
2022-10-08T04:32:59.034Z,79.79
2022-10-08T04:35:25.455Z,81.08
2022-10-08T04:37:51.773Z,81.60
2022-10-08T04:40:18.045Z,81.55
2022-10-08T04:42:44.570Z,81.76
2022-10-08T04:45:11.582Z,82.76
2022-10-08T04:47:37.898Z,82.54
2022-10-08T04:50:04.552Z,83.46
2022-10-08T04:52:31.937Z,83.44
2022-10-08T04:54:58.243Z,83.52
2022-10-08T04:57:24.520Z,84.03
2022-10-08T05:00:16.647Z,84.38
2022-10-08T05:02:37.180Z,84.44
2022-10-08T05:05:03.780Z,84.99
2022-10-08T05:07:30.096Z,85.36
2022-10-08T05:09:56.405Z,85.01
2022-10-08T05:12:22.722Z,85.65
2022-10-08T05:14:48.993Z,86.10
2022-10-08T05:17:15.377Z,86.18
2022-10-08T05:19:41.643Z,86.36
2022-10-08T05:22:07.958Z,86.79
2022-10-08T05:24:34.251Z,86.93
2022-10-08T05:27:00.561Z,86.98
2022-10-08T05:29:28.629Z,86.98
2022-10-08T05:31:54.954Z,87.38
2022-10-08T05:34:21.453Z,87.01
2022-10-08T05:36:47.818Z,87.34
2022-10-08T05:39:14.161Z,87.45
2022-10-08T05:41:41.081Z,87.55
2022-10-08T05:44:09.577Z,87.66
2022-10-08T05:46:37.207Z,87.47
2022-10-08T05:49:06.218Z,87.84
2022-10-08T05:51:32.761Z,87.29
2022-10-08T05:54:00.237Z,87.57
2022-10-08T05:56:28.022Z,87.68
2022-10-08T05:58:54.809Z,87.44
2022-10-08T06:01:28.015Z,87.40
2022-10-08T06:03:56.881Z,87.27
2022-10-08T06:06:24.328Z,87.50
2022-10-08T06:09:00.759Z,87.95
2022-10-08T06:11:28.304Z,87.68
2022-10-08T06:13:58.177Z,87.75
2022-10-08T06:16:25.389Z,87.84
2022-10-08T06:18:51.816Z,88.00
2022-10-08T06:21:24.389Z,88.19
2022-10-08T06:23:55.963Z,88.31
2022-10-08T06:26:25.934Z,87.86
2022-10-08T06:28:52.569Z,88.38
2022-10-08T06:31:20.005Z,88.31
2022-10-08T06:33:46.532Z,87.99
2022-10-08T06:36:24.362Z,87.97
2022-10-08T06:38:52.457Z,88.24
2022-10-08T06:41:19.721Z,88.44
2022-10-08T06:43:46.146Z,88.84
2022-10-08T06:46:12.700Z,88.43
2022-10-08T06:48:39.624Z,88.25
2022-10-08T06:51:09.436Z,88.12
2022-10-08T06:53:35.744Z,88.43
2022-10-08T06:56:05.114Z,88.33
2022-10-08T06:58:31.757Z,88.53
2022-10-08T07:01:09.564Z,88.07
2022-10-08T07:03:37.737Z,88.57
2022-10-08T07:06:12.400Z,88.95
2022-10-08T07:08:39.175Z,89.13
2022-10-08T07:11:16.070Z,89.22
2022-10-08T07:13:43.349Z,89.22
2022-10-08T07:16:14.700Z,88.95
2022-10-08T07:18:45.715Z,88.90
2022-10-08T07:21:14.074Z,89.26
2022-10-08T07:23:40.379Z,89.35
2022-10-08T07:26:18.896Z,89.40
2022-10-08T07:28:54.246Z,89.47
2022-10-08T07:31:23.647Z,89.51
2022-10-08T07:33:50.486Z,89.71
2022-10-08T07:36:21.718Z,89.69
2022-10-08T07:38:48.102Z,89.63
2022-10-08T07:41:14.782Z,89.66
2022-10-08T07:43:41.278Z,89.78
2022-10-08T07:46:09.681Z,89.93
2022-10-08T07:48:36.397Z,90.37
2022-10-08T07:51:19.858Z,90.51
2022-10-08T07:53:46.623Z,90.14
2022-10-08T07:56:14.547Z,90.05
2022-10-08T07:58:41.566Z,90.28
2022-10-08T08:01:10.720Z,90.64
2022-10-08T08:03:37.468Z,90.37
2022-10-08T08:06:09.506Z,90.24
2022-10-08T08:08:37.498Z,90.18
2022-10-08T08:11:05.858Z,89.97
2022-10-08T08:13:37.006Z,89.47
2022-10-08T08:16:06.662Z,88.86
2022-10-08T08:18:35.729Z,88.52
2022-10-08T08:21:11.253Z,87.54
2022-10-08T08:23:40.053Z,87.43
2022-10-08T08:26:12.639Z,87.00
2022-10-08T08:28:39.654Z,87.46
2022-10-08T08:31:17.389Z,86.46
2022-10-08T08:33:48.417Z,85.72
2022-10-08T08:36:14.789Z,84.97
2022-10-08T08:38:41.146Z,85.23
2022-10-08T08:41:26.190Z,84.66
2022-10-08T08:44:01.313Z,83.80
2022-10-08T08:46:33.268Z,83.25
2022-10-08T08:49:07.567Z,82.54
2022-10-08T08:51:34.579Z,81.59
2022-10-08T08:54:00.961Z,80.87
2022-10-08T08:56:27.962Z,80.73
2022-10-08T08:59:05.725Z,79.14
2022-10-08T09:01:46.449Z,77.32
2022-10-08T09:04:24.777Z,76.00
2022-10-08T09:06:53.251Z,72.32
2022-10-08T09:09:33.541Z,71.34
2022-10-08T09:12:03.102Z,69.04
2022-10-08T09:14:38.492Z,69.56
2022-10-08T09:17:14.800Z,69.83
2022-10-08T09:19:41.413Z,68.49
2022-10-08T09:22:23.006Z,68.23
2022-10-08T09:25:03.190Z,69.24
2022-10-08T09:27:47.525Z,70.38
2022-10-08T09:30:39.113Z,71.01
2022-10-08T09:33:29.475Z,70.42
2022-10-08T09:35:55.937Z,71.21
2022-10-08T09:38:27.998Z,72.82
2022-10-08T09:41:05.282Z,73.23
2022-10-08T09:43:33.913Z,72.99
2022-10-08T09:46:04.696Z,69.44
2022-10-08T09:48:31.430Z,64.63
2022-10-08T09:51:10.956Z,60.33
2022-10-08T09:53:40.475Z,58.43
2022-10-08T09:56:08.965Z,56.06
2022-10-08T09:58:47.966Z,56.98
2022-10-08T10:01:16.665Z,57.46
2022-10-08T10:04:00.945Z,57.97
2022-10-08T10:06:37.122Z,60.24
2022-10-08T10:09:26.265Z,60.37
2022-10-08T10:12:10.340Z,61.11
2022-10-08T10:14:52.784Z,62.10
2022-10-08T10:17:41.142Z,61.10
2022-10-08T10:20:07.770Z,61.25
2022-10-08T10:22:56.836Z,61.67
2022-10-08T10:25:57.497Z,60.65
2022-10-08T10:28:57.166Z,60.81
2022-10-08T10:31:31.626Z,60.21
2022-10-08T10:34:13.453Z,60.49
2022-10-08T10:36:50.556Z,62.56
2022-10-08T10:39:36.313Z,62.28
2022-10-08T10:42:22.868Z,63.26
2022-10-08T10:45:10.842Z,63.24
2022-10-08T10:47:37.194Z,62.77
2022-10-08T10:50:03.653Z,62.19
2022-10-08T10:53:15.599Z,61.56
2022-10-08T10:55:55.452Z,62.74
2022-10-08T10:58:31.325Z,60.77
2022-10-08T11:01:22.120Z,61.00
2022-10-08T11:03:58.750Z,58.16
2022-10-08T11:06:45.746Z,58.36
2022-10-08T11:09:28.238Z,57.92
2022-10-08T11:11:59.666Z,56.61
2022-10-08T11:14:47.980Z,55.96
2022-10-08T11:17:16.749Z,54.28
2022-10-08T11:20:21.512Z,51.98
2022-10-08T11:23:02.115Z,52.71
2022-10-08T11:25:49.458Z,54.23
2022-10-08T11:28:39.515Z,56.51
2022-10-08T11:31:21.088Z,56.80
2022-10-08T11:33:49.001Z,56.59
2022-10-08T11:36:32.885Z,55.96
2022-10-08T11:39:15.296Z,54.61
2022-10-08T11:41:56.635Z,50.27
2022-10-08T11:44:23.646Z,49.74
2022-10-08T11:46:49.954Z,49.79
2022-10-08T11:49:16.219Z,48.01
2022-10-08T11:51:44.482Z,47.22
2022-10-08T11:54:23.139Z,46.63
2022-10-08T11:56:52.481Z,46.82
2022-10-08T11:59:28.610Z,46.40
2022-10-08T12:02:01.464Z,47.42
2022-10-08T12:04:34.810Z,45.95
2022-10-08T12:07:23.437Z,47.17
2022-10-08T12:10:04.811Z,47.75
2022-10-08T12:12:51.216Z,47.61
2022-10-08T12:15:40.184Z,46.68
2022-10-08T12:18:25.118Z,46.49
2022-10-08T12:21:17.060Z,45.09
2022-10-08T12:23:44.702Z,44.37
2022-10-08T12:26:13.918Z,43.23
2022-10-08T12:28:43.040Z,40.87
2022-10-08T12:31:40.146Z,40.27
2022-10-08T12:34:20.011Z,41.11
2022-10-08T12:36:58.840Z,41.53
2022-10-08T12:39:42.964Z,42.16
2022-10-08T12:42:31.121Z,41.22
2022-10-08T12:45:14.909Z,41.74
2022-10-08T12:47:47.182Z,40.00
2022-10-08T12:50:32.617Z,38.97
2022-10-08T12:53:00.745Z,39.53
2022-10-08T12:55:27.401Z,39.67
2022-10-08T12:57:54.321Z,40.05
2022-10-08T13:00:29.443Z,40.30
2022-10-08T13:03:07.356Z,39.95
2022-10-08T13:05:39.081Z,40.74
2022-10-08T13:08:38.890Z,40.95
2022-10-08T13:11:08.062Z,40.66
2022-10-08T13:13:40.426Z,41.32
2022-10-08T13:16:09.057Z,42.45
2022-10-08T13:18:37.032Z,43.04
2022-10-08T13:21:22.513Z,43.26
2022-10-08T13:23:48.815Z,43.49
2022-10-08T13:26:37.333Z,43.70
2022-10-08T13:29:22.257Z,44.60
2022-10-08T13:32:03.768Z,44.17
2022-10-08T13:34:39.199Z,43.24
2022-10-08T13:37:09.301Z,43.17
2022-10-08T13:39:39.341Z,41.12
2022-10-08T13:42:09.785Z,40.37
2022-10-08T13:44:38.627Z,40.20
2022-10-08T13:47:05.467Z,38.60
2022-10-08T13:49:32.821Z,38.53
2022-10-08T13:52:00.326Z,38.89
2022-10-08T13:54:30.435Z,39.08
2022-10-08T13:56:57.142Z,39.26
2022-10-08T13:59:28.214Z,40.22
2022-10-08T14:01:56.735Z,40.36
2022-10-08T14:04:23.295Z,40.41
2022-10-08T14:06:54.223Z,40.03
2022-10-08T14:09:24.186Z,40.81
2022-10-08T14:11:56.271Z,40.82
2022-10-08T14:14:24.098Z,40.44
2022-10-08T14:16:51.212Z,40.72
2022-10-08T14:19:18.238Z,39.84
2022-10-08T14:21:44.864Z,39.27
2022-10-08T14:24:12.312Z,39.89
2022-10-08T14:26:38.725Z,41.18
2022-10-08T14:29:05.022Z,40.47
2022-10-08T14:31:31.403Z,41.25
2022-10-08T14:33:57.881Z,41.73
2022-10-08T14:36:31.660Z,41.98
2022-10-08T14:38:57.953Z,40.67
2022-10-08T14:41:24.289Z,41.48
2022-10-08T14:43:50.667Z,40.55
2022-10-08T14:46:17.085Z,40.57
2022-10-08T14:48:43.375Z,40.43
2022-10-08T14:51:09.728Z,41.70
2022-10-08T14:53:36.078Z,41.76
2022-10-08T14:56:12.154Z,41.83
2022-10-08T14:58:39.274Z,42.20
2022-10-08T15:01:06.048Z,42.11
2022-10-08T15:03:32.606Z,42.47
2022-10-08T15:06:00.257Z,42.43
2022-10-08T15:08:27.312Z,42.64
2022-10-08T15:10:53.681Z,43.05
2022-10-08T15:13:20.068Z,42.00
2022-10-08T15:15:46.425Z,41.75
2022-10-08T15:18:12.788Z,42.06
2022-10-08T15:20:39.274Z,42.51
2022-10-08T15:23:07.091Z,41.98
2022-10-08T15:25:33.870Z,42.07
2022-10-08T15:28:00.616Z,43.47
2022-10-08T15:30:27.076Z,42.83
2022-10-08T15:32:53.697Z,42.53
2022-10-08T15:35:20.037Z,42.72
2022-10-08T15:37:47.051Z,42.80
2022-10-08T15:40:13.429Z,43.49
2022-10-08T15:42:39.712Z,43.15
2022-10-08T15:45:06.439Z,43.23
2022-10-08T15:47:32.947Z,43.77
2022-10-08T15:49:59.715Z,43.55
2022-10-08T15:52:26.429Z,44.01
2022-10-08T15:54:52.820Z,45.19
2022-10-08T15:57:19.259Z,44.65
2022-10-08T15:59:45.670Z,44.90
2022-10-08T16:02:17.098Z,44.89
2022-10-08T16:04:45.472Z,45.46
2022-10-08T16:07:12.300Z,44.94
2022-10-08T16:09:38.798Z,44.87
2022-10-08T16:12:05.252Z,45.45
2022-10-08T16:14:31.696Z,45.39
2022-10-08T16:16:58.136Z,45.44
2022-10-08T16:19:26.689Z,46.04
2022-10-08T16:21:55.191Z,45.48
2022-10-08T16:24:22.915Z,45.87
2022-10-08T16:26:49.473Z,46.69
2022-10-08T16:29:17.975Z,47.38
2022-10-08T16:31:45.664Z,47.30
2022-10-08T16:34:17.659Z,47.46
2022-10-08T16:36:45.839Z,47.84
2022-10-08T16:39:13.645Z,49.16
2022-10-08T16:41:40.823Z,49.14
2022-10-08T16:44:18.791Z,49.16
2022-10-08T16:46:51.031Z,50.71
2022-10-08T16:49:26.517Z,49.72
2022-10-08T16:51:58.984Z,49.72
2022-10-08T16:54:26.723Z,49.49
2022-10-08T16:56:53.552Z,49.79
2022-10-08T16:59:22.926Z,51.04
2022-10-08T17:01:51.758Z,50.85
2022-10-08T17:04:23.512Z,52.25
2022-10-08T17:06:49.992Z,52.12
2022-10-08T17:09:16.914Z,51.70
2022-10-08T17:11:43.896Z,52.11
2022-10-08T17:14:11.639Z,51.63
2022-10-08T17:16:39.313Z,52.35
2022-10-08T17:19:06.021Z,52.17
2022-10-08T17:21:34.764Z,52.72
2022-10-08T17:24:02.377Z,54.77
2022-10-08T17:26:30.161Z,55.80
2022-10-08T17:28:57.322Z,55.79
2022-10-08T17:31:29.249Z,56.66
2022-10-08T17:33:55.598Z,55.90
2022-10-08T17:36:27.346Z,55.89
2022-10-08T17:38:56.776Z,57.16
2022-10-08T17:41:28.145Z,57.60
2022-10-08T17:43:58.525Z,58.23
2022-10-08T17:46:37.983Z,59.32
2022-10-08T17:49:05.480Z,60.38
2022-10-08T17:51:32.178Z,60.38
2022-10-08T17:54:01.312Z,61.16
2022-10-08T17:56:28.581Z,61.82
2022-10-08T17:58:55.136Z,61.00
2022-10-08T18:01:26.800Z,62.03
2022-10-08T18:03:56.290Z,62.20
2022-10-08T18:06:23.376Z,61.81
2022-10-08T18:08:55.100Z,63.11
2022-10-08T18:11:21.523Z,63.74
2022-10-08T18:13:47.813Z,63.74
2022-10-08T18:16:16.777Z,64.16
2022-10-08T18:18:44.291Z,64.48
2022-10-08T18:21:15.937Z,64.78
2022-10-08T18:23:48.847Z,65.14
2022-10-08T18:26:24.049Z,65.51
2022-10-08T18:28:53.128Z,65.69
2022-10-08T18:31:20.743Z,67.34
2022-10-08T18:33:49.924Z,66.96
2022-10-08T18:36:22.064Z,68.05
2022-10-08T18:38:55.615Z,68.40
2022-10-08T18:41:29.315Z,68.55
2022-10-08T18:43:56.872Z,68.15
2022-10-08T18:46:23.607Z,68.74
2022-10-08T18:48:50.078Z,68.60
2022-10-08T18:51:22.651Z,69.04
2022-10-08T18:53:50.053Z,69.75
2022-10-08T18:56:19.793Z,69.90
2022-10-08T18:58:46.958Z,70.63
2022-10-08T19:01:22.167Z,70.91
2022-10-08T19:03:50.851Z,70.98
2022-10-08T19:06:19.173Z,69.85
2022-10-08T19:08:46.937Z,71.14
2022-10-08T19:11:16.820Z,70.95
2022-10-08T19:13:44.448Z,71.13
2022-10-08T19:16:15.250Z,71.49
2022-10-08T19:18:59.168Z,71.44
2022-10-08T19:21:26.592Z,71.92
2022-10-08T19:23:53.162Z,72.13
2022-10-08T19:26:19.601Z,72.62
2022-10-08T19:28:50.992Z,72.82
2022-10-08T19:31:22.919Z,73.08
2022-10-08T19:33:50.443Z,73.00
2022-10-08T19:36:17.839Z,73.19
2022-10-08T19:38:44.752Z,73.22
2022-10-08T19:41:11.867Z,73.09
2022-10-08T19:43:38.339Z,73.83
2022-10-08T19:46:05.545Z,73.86
2022-10-08T19:48:32.366Z,73.87
2022-10-08T19:51:07.275Z,73.85
2022-10-08T19:53:34.111Z,74.38
2022-10-08T19:56:03.313Z,74.14
2022-10-08T19:58:29.733Z,74.48
2022-10-08T20:01:05.301Z,74.66
2022-10-08T20:03:32.308Z,75.09
2022-10-08T20:06:03.143Z,75.50
2022-10-08T20:08:29.863Z,75.48
2022-10-08T20:10:59.201Z,76.05
2022-10-08T20:13:25.770Z,76.24
2022-10-08T20:15:52.161Z,75.93
2022-10-08T20:18:18.609Z,76.51
2022-10-08T20:20:44.905Z,76.35
2022-10-08T20:23:11.233Z,76.05
2022-10-08T20:25:37.592Z,76.15
2022-10-08T20:28:03.896Z,75.87
2022-10-08T20:30:30.213Z,75.26
2022-10-08T20:32:56.489Z,75.56
2022-10-08T20:35:23.491Z,75.64
2022-10-08T20:37:49.854Z,75.87
2022-10-08T20:40:16.264Z,76.10
2022-10-08T20:42:42.555Z,76.15
2022-10-08T20:45:11.841Z,76.05
2022-10-08T20:47:38.321Z,76.10
2022-10-08T20:50:05.042Z,76.79
2022-10-08T20:52:31.630Z,76.35
2022-10-08T20:54:57.922Z,76.67
2022-10-08T20:57:24.306Z,77.21
2022-10-08T20:59:50.640Z,77.47
2022-10-08T21:02:19.765Z,77.17
2022-10-08T21:04:46.297Z,77.42
2022-10-08T21:07:12.630Z,77.33
2022-10-08T21:09:38.913Z,77.59
2022-10-08T21:12:05.494Z,77.42
2022-10-08T21:14:31.913Z,77.55
2022-10-08T21:16:58.217Z,77.53
2022-10-08T21:19:25.761Z,78.15
2022-10-08T21:21:52.569Z,77.54
2022-10-08T21:24:19.106Z,77.90
2022-10-08T21:26:45.459Z,78.78
2022-10-08T21:29:14.564Z,78.87
2022-10-08T21:31:41.876Z,79.14
2022-10-08T21:34:08.669Z,78.86
2022-10-08T21:36:38.104Z,79.44
2022-10-08T21:39:06.576Z,79.56
2022-10-08T21:41:35.081Z,79.11
2022-10-08T21:44:03.921Z,79.18
2022-10-08T21:46:33.226Z,79.19
2022-10-08T21:49:05.549Z,79.62
2022-10-08T21:51:33.098Z,79.40
2022-10-08T21:54:01.632Z,79.51
2022-10-08T21:56:30.440Z,79.22
2022-10-08T21:58:59.277Z,79.99
2022-10-08T22:01:31.694Z,79.69
2022-10-08T22:04:00.232Z,79.49
2022-10-08T22:06:28.625Z,79.54
2022-10-08T22:08:56.394Z,79.94
2022-10-08T22:11:23.557Z,80.23
2022-10-08T22:13:50.789Z,80.38
2022-10-08T22:16:19.074Z,80.69
2022-10-08T22:18:45.716Z,80.90
2022-10-08T22:21:16.572Z,81.05
2022-10-08T22:23:42.977Z,80.72
2022-10-08T22:26:12.590Z,80.88
2022-10-08T22:28:39.489Z,80.43
2022-10-08T22:31:08.313Z,80.18
2022-10-08T22:33:35.496Z,80.68
2022-10-08T22:36:08.001Z,80.28
2022-10-08T22:38:36.521Z,80.27
2022-10-08T22:41:14.444Z,80.15
2022-10-08T22:43:41.337Z,79.97
2022-10-08T22:46:10.970Z,80.33
2022-10-08T22:48:37.382Z,79.96
2022-10-08T22:51:06.464Z,79.99
2022-10-08T22:53:33.040Z,80.70
2022-10-08T22:55:59.759Z,81.08
2022-10-08T22:58:26.104Z,81.67
2022-10-08T23:01:03.965Z,81.42
2022-10-08T23:03:31.311Z,81.88
2022-10-08T23:06:18.382Z,81.74
2022-10-08T23:08:46.337Z,81.23
2022-10-08T23:11:14.156Z,81.19
2022-10-08T23:13:40.678Z,81.25
2022-10-08T23:16:13.058Z,81.63
2022-10-08T23:18:41.842Z,81.59
2022-10-08T23:21:12.384Z,81.56
2022-10-08T23:23:39.372Z,81.30
2022-10-08T23:26:07.167Z,81.66
2022-10-08T23:28:35.949Z,81.77
2022-10-08T23:31:09.385Z,82.68
2022-10-08T23:33:38.095Z,82.36
2022-10-08T23:36:06.844Z,82.57
2022-10-08T23:38:34.934Z,82.57
2022-10-08T23:41:02.785Z,82.03
2022-10-08T23:43:34.410Z,82.07
2022-10-08T23:46:00.806Z,82.70
2022-10-08T23:48:27.244Z,82.74
2022-10-08T23:50:53.726Z,82.84
2022-10-08T23:53:20.769Z,82.60
2022-10-08T23:55:47.476Z,82.30
2022-10-08T23:58:17.740Z,82.56
